Kennicott — WCY2920 — position and weather

sailwx.info

Track history (hours):
 
Tides and Currents Weather Stations Pressure Air Temp Water Temp Dewpoint Dewpoint Depression Visibility Wind Speed Wind Dir Waves Ship Positions

Kennicott

Owner: ALASKA, STATE OF, Anchorage, AK. More information available from US FCC via Universal Licensing System and Coast Guard Vessel Documentation Center.

Last reported at 2018-Dec-09 13:22 UTC. Time now 2018-Dec-12 14:55 UTC.
Position N 54°54' W 131°02'.

Type: Passenger vessel. MMSI: 368250000.

Date/timePositionNaut miles runAvg speedWind from/ knotsBaromVisibWave heightAir tempDewpointWater temp
2018-Dec-09 13:22N 54°54' W 131°02'616.2
2018-Dec-09 13:00N 54°48' W 130°58'816.0
2018-Dec-09 12:30N 54°42' W 130°49'815.9
2018-Dec-09 12:00N 54°36' W 130°40'815.6
2018-Dec-09 11:30N 54°28' W 130°38'816.9
2018-Dec-09 11:00N 54°20' W 130°35'917.1
2018-Dec-09 10:31N 54°13' W 130°29'713.7
2018-Dec-09 10:00N 54°07' W 130°23'817.0
2018-Dec-09 09:30N 54°00' W 130°13'816.3
2018-Dec-09 09:00N 53°53' W 130°06'917.4
2018-Dec-09 08:30N 53°47' W 129°56'8315.0
2018-Dec-09 02:58N 52°41' W 128°33'714.9
2018-Dec-09 02:30N 52°34' W 128°29'715.3
2018-Dec-09 02:00N 52°27' W 128°28'815.4
2018-Dec-09 01:30N 52°19' W 128°32'713.1
2018-Dec-09 01:00N 52°15' W 128°24'917.3
2018-Dec-09 00:30N 52°13' W 128°10'4 8.8
2018-Dec-09 00:00N 52°09' W 128°08'611.4
2018-Dec-08 23:30N 52°04' W 128°03'612.4
2018-Dec-08 23:00N 52°00' W 127°56'815.1
2018-Dec-08 22:30N 51°53' W 127°56'815.7
2018-Dec-08 22:00N 51°45' W 127°55'815.9
2018-Dec-08 21:31N 51°37' W 127°53'816.4
2018-Dec-08 21:00N 51°29' W 127°51'816.2
2018-Dec-08 20:29N 51°20' W 127°52'816.0
2018-Dec-08 20:00N 51°13' W 127°52'815.7
2018-Dec-08 19:30N 51°06' W 127°45'816.1
2018-Dec-08 19:00N 51°00' W 127°36'815.8
2018-Dec-08 18:30N 50°56' W 127°26'816.9
2018-Dec-08 18:00N 50°51' W 127°15'917.2
2018-Dec-08 17:30N 50°46' W 127°03'917.2
2018-Dec-08 17:00N 50°41' W 126°53'917.7
2018-Dec-08 16:30N 50°35' W 126°42'916.5
2018-Dec-08 15:57N 50°30' W 126°30'1318.4
2018-Dec-08 15:14N 50°28' W 126°09'1717.7
2018-Dec-08 14:17N 50°22' W 125°45'1217.0
2018-Dec-08 13:36N 50°20' W 125°27'114.0
2018-Dec-08 13:30N 50°19' W 125°25'816.4
2018-Dec-08 13:01N 50°12' W 125°22'611.7
2018-Dec-08 12:30N 50°06' W 125°18'510.0
2018-Dec-08 12:00N 50°02' W 125°13'611.9
2018-Dec-08 11:30N 49°57' W 125°08'714.1
2018-Dec-08 11:00N 49°52' W 125°00'714.4
2018-Dec-08 10:30N 49°47' W 124°53'714.4
2018-Dec-08 10:00N 49°42' W 124°45'714.3
2018-Dec-08 09:30N 49°37' W 124°37'714.4
2018-Dec-08 09:00N 49°32' W 124°29'713.8
2018-Dec-08 08:30N 49°27' W 124°21'714.3
2018-Dec-08 08:01N 49°24' W 124°11'714.4
2018-Dec-08 07:30N 49°23' W 124°00'714.6
2018-Dec-08 07:01N 49°21' W 123°50'714.5
2018-Dec-08 06:30N 49°16' W 123°41'714.7
2018-Dec-08 06:00N 49°12' W 123°33'714.5
2018-Dec-08 05:31N 49°06' W 123°25'714.7
2018-Dec-08 05:00N 49°02' W 123°16'714.6
2018-Dec-08 04:31N 48°57' W 123°08'714.5
2018-Dec-08 04:01N 48°52' W 122°60'714.5
2018-Dec-08 03:30N 48°47' W 122°51'714.1
2018-Dec-08 03:00N 48°42' W 122°44'713.7
2018-Dec-08 02:31N 48°38' W 122°36'611.7
2018-Dec-08 01:59N 48°44' W 122°31'0 0.6
2018-Dec-08 01:30N 48°43' W 122°31'0 0.0
2018-Dec-08 01:00N 48°43' W 122°31'0 0.0
2018-Dec-08 00:21N 48°43' W 122°31'0 0.0
2018-Dec-08 00:00N 48°43' W 122°31'0 0.0
2018-Dec-07 23:30N 48°43' W 122°31'0 0.0
2018-Dec-07 23:00N 48°43' W 122°31'0 0.0
2018-Dec-07 22:30N 48°43' W 122°31'0 0.0
2018-Dec-07 21:57N 48°43' W 122°31'0 0.0
2018-Dec-07 21:30N 48°43' W 122°31'0 0.0
2018-Dec-07 21:00N 48°43' W 122°31'0 0.0
2018-Dec-07 20:27N 48°43' W 122°31'0 0.0
2018-Dec-07 19:57N 48°43' W 122°31'0 0.0
2018-Dec-07 19:30N 48°43' W 122°31'0 0.0
2018-Dec-07 18:54N 48°43' W 122°31'0 0.0
2018-Dec-07 18:30N 48°43' W 122°31'0 0.0
2018-Dec-07 18:00N 48°43' W 122°31'0 0.0
2018-Dec-07 17:27N 48°43' W 122°31'0 0.0
2018-Dec-07 16:57N 48°43' W 122°31'0 0.0
2018-Dec-07 16:30N 48°43' W 122°31'0 0.0
2018-Dec-07 15:57N 48°43' W 122°31'0 0.6
2018-Dec-07 15:30N 48°44' W 122°31'611.3
2018-Dec-07 15:00N 48°38' W 122°34'713.0
2018-Dec-07 14:29N 48°41' W 122°44'714.8
2018-Dec-07 14:00N 48°46' W 122°51'816.1
2018-Dec-07 13:30N 48°50' W 123°01'815.7
2018-Dec-07 13:00N 48°55' W 123°10'816.1
2018-Dec-07 12:30N 49°01' W 123°19'815.8
2018-Dec-07 12:00N 49°06' W 123°28'815.6
2018-Dec-07 11:30N 49°12' W 123°36'815.6
2018-Dec-07 11:00N 49°18' W 123°45'815.7
2018-Dec-07 10:30N 49°21' W 123°55'815.9
2018-Dec-07 10:00N 49°24' W 124°07'815.7
2018-Dec-07 09:30N 49°26' W 124°18'815.6
2018-Dec-07 09:00N 49°31' W 124°28'816.3
2018-Dec-07 08:30N 49°37' W 124°36'816.5
2018-Dec-07 08:00N 49°42' W 124°45'816.2
2018-Dec-07 07:30N 49°48' W 124°54'816.3
2018-Dec-07 07:00N 49°54' W 125°03'815.7
2018-Dec-07 06:30N 49°59' W 125°12'611.4
2018-Dec-07 06:00N 50°05' W 125°16'612.2
2018-Dec-07 05:30N 50°10' W 125°22'813.8
2018-Dec-07 04:58N 50°17' W 125°24'712.9
2018-Dec-07 04:27N 50°21' W 125°32'613.7
2018-Dec-07 04:00N 50°22' W 125°41'2013.2
2018-Dec-07 02:29N 50°28' W 126°11'814.5
2018-Dec-07 01:58N 50°30' W 126°23'714.4
2018-Dec-07 01:29N 50°30' W 126°34'612.3
2018-Dec-07 01:00N 50°34' W 126°41'714.3
2018-Dec-07 00:29N 50°39' W 126°50'715.7
2018-Dec-07 00:00N 50°44' W 126°59'815.6
2018-Dec-06 23:31N 50°49' W 127°09'815.5
2018-Dec-06 23:01N 50°53' W 127°19'714.8
2018-Dec-06 22:31N 50°57' W 127°28'713.5
2018-Dec-06 22:00N 51°02' W 127°36'714.4
2018-Dec-06 21:31N 51°06' W 127°45'714.0
2018-Dec-06 21:01N 51°12' W 127°51'815.0
2018-Dec-06 20:30N 51°20' W 127°52'815.9
2018-Dec-06 20:00N 51°28' W 127°51'14013.3
2018-Dec-06 09:28N 53°26' W 129°55'915.5
2018-Dec-06 08:55N 53°31' W 130°06'715.4
2018-Dec-06 08:29N 53°35' W 130°15'714.6
2018-Dec-06 08:00N 53°39' W 130°25'815.4
2018-Dec-06 07:31N 53°44' W 130°35'714.9
2018-Dec-06 07:00N 53°49' W 130°44'714.8
2018-Dec-06 06:30N 53°54' W 130°54'713.9
2018-Dec-06 06:01N 54°00' W 130°58'815.3
2018-Dec-06 05:30N 54°08' W 131°00'815.4
2018-Dec-06 05:00N 54°15' W 131°02'816.1
2018-Dec-06 04:31N 54°23' W 131°03'815.7
2018-Dec-06 04:00N 54°31' W 131°02'1515.5
2018-Dec-06 03:00N 54°47' W 131°03'  
2018-Dec-02 12:57N 54°51' W 131°00'715.3
2018-Dec-02 12:30N 54°45' W 130°54'816.1
2018-Dec-02 12:00N 54°40' W 130°45'814.9
2018-Dec-02 11:30N 54°33' W 130°39'815.7
2018-Dec-02 11:00N 54°25' W 130°37'816.1
2018-Dec-02 10:30N 54°17' W 130°34'816.6
2018-Dec-02 10:00N 54°10' W 130°27'713.2
2018-Dec-02 09:30N 54°05' W 130°19'815.7
2018-Dec-02 09:00N 53°59' W 130°12'714.7
2018-Dec-02 08:30N 53°53' W 130°05'815.8
2018-Dec-02 08:00N 53°47' W 129°56'8014.1
2018-Dec-02 02:19N 52°43' W 128°34'516.4
2018-Dec-02 02:00N 52°38' W 128°31'815.7
2018-Dec-02 01:29N 52°30' W 128°28'815.7
2018-Dec-02 01:00N 52°23' W 128°31'713.9
2018-Dec-02 00:30N 52°16' W 128°30'816.6
2018-Dec-02 00:00N 52°15' W 128°17'714.5
2018-Dec-01 23:30N 52°11' W 128°06'4 8.4
2018-Dec-01 23:00N 52°07' W 128°08'713.6
2018-Dec-01 22:30N 52°04' W 127°58'714.3
2018-Dec-01 22:00N 51°57' W 127°56'816.0
2018-Dec-01 21:30N 51°49' W 127°55'816.2
2018-Dec-01 21:00N 51°41' W 127°55'815.8
2018-Dec-01 20:30N 51°33' W 127°52'815.6
2018-Dec-01 20:00N 51°26' W 127°52'815.4
2018-Dec-01 19:31N 51°18' W 127°52'815.1
2018-Dec-01 19:00N 51°10' W 127°50'815.4
2018-Dec-01 18:30N 51°05' W 127°42'815.0
2018-Dec-01 18:00N 50°59' W 127°34'815.7
2018-Dec-01 17:30N 50°55' W 127°24'816.4
2018-Dec-01 17:00N 50°50' W 127°13'816.4
2018-Dec-01 16:30N 50°46' W 127°02'815.8
2018-Dec-01 16:00N 50°41' W 126°52'715.0
2018-Dec-01 15:30N 50°36' W 126°43'713.6
2018-Dec-01 14:59N 50°31' W 126°36'816.1
2018-Dec-01 14:29N 50°30' W 126°23'916.4
2018-Dec-01 13:57N 50°29' W 126°10'1616.1
2018-Dec-01 12:58N 50°23' W 125°46'916.9
2018-Dec-01 12:25N 50°21' W 125°32'615.2
2018-Dec-01 12:00N 50°17' W 125°25'917.6
2018-Dec-01 11:31N 50°09' W 125°21'814.9
2018-Dec-01 11:00N 50°03' W 125°14'816.3
2018-Dec-01 10:30N 49°56' W 125°07'816.1
2018-Dec-01 10:00N 49°51' W 124°58'816.4
2018-Dec-01 09:31N 49°45' W 124°49'816.2
2018-Dec-01 09:00N 49°39' W 124°40'815.5
2018-Dec-01 08:30N 49°34' W 124°32'816.1
2018-Dec-01 08:00N 49°28' W 124°23'816.3
2018-Dec-01 07:31N 49°24' W 124°12'815.4
2018-Dec-01 07:00N 49°23' W 124°00'816.1
2018-Dec-01 06:30N 49°21' W 123°48'816.1
2018-Dec-01 06:00N 49°16' W 123°39'815.9
2018-Dec-01 05:31N 49°10' W 123°30'816.4
2018-Dec-01 05:00N 49°05' W 123°21'816.2
2018-Dec-01 04:30N 48°59' W 123°12'816.5
2018-Dec-01 04:00N 48°53' W 123°03'816.2
2018-Dec-01 03:30N 48°48' W 122°53'815.6
2018-Dec-01 03:00N 48°43' W 122°44'715.1
2018-Dec-01 02:31N 48°38' W 122°36'610.6
2018-Dec-01 01:56N 48°43' W 122°31'0 0.0
2018-Dec-01 01:29N 48°43' W 122°31'0 0.0
2018-Dec-01 00:38N 48°43' W 122°31'0 0.0
2018-Dec-01 00:29N 48°43' W 122°31'0 0.0
2018-Nov-30 23:59N 48°43' W 122°31'0 0.0
2018-Nov-30 23:20N 48°43' W 122°31'0 0.0
2018-Nov-30 22:59N 48°43' W 122°31'0 0.0
2018-Nov-30 22:26N 48°43' W 122°31'0 0.0
2018-Nov-30 21:41N 48°43' W 122°31'0 0.0
2018-Nov-30 21:29N 48°43' W 122°31'0 0.0
2018-Nov-30 20:59N 48°43' W 122°31'0 0.0
2018-Nov-30 20:08N 48°43' W 122°31'0 0.0
2018-Nov-30 18:50N 48°43' W 122°31'0 0.0
2018-Nov-30 18:20N 48°43' W 122°31'0 0.0
2018-Nov-30 17:56N 48°43' W 122°31'0 0.0
2018-Nov-30 16:29N 48°43' W 122°31'0 0.0
2018-Nov-30 15:59N 48°43' W 122°31'0 0.3
2018-Nov-30 15:30N 48°44' W 122°31'510.1
2018-Nov-30 15:00N 48°39' W 122°34'510.6
2018-Nov-30 14:30N 48°40' W 122°42'612.8
2018-Nov-30 14:00N 48°45' W 122°47'613.0
2018-Nov-30 13:30N 48°48' W 122°56'714.4
2018-Nov-30 13:00N 48°52' W 123°05'714.9
2018-Nov-30 12:30N 48°57' W 123°13'713.5
2018-Nov-30 12:00N 49°02' W 123°21'713.5
2018-Nov-30 11:30N 49°06' W 123°28'713.6
2018-Nov-30 11:00N 49°11' W 123°35'713.4
2018-Nov-30 10:30N 49°16' W 123°42'714.3
2018-Nov-30 10:00N 49°21' W 123°50'714.6
2018-Nov-30 09:30N 49°23' W 124°01'714.7
2018-Nov-30 09:00N 49°24' W 124°12'714.5
2018-Nov-30 08:29N 49°28' W 124°22'714.5
2018-Nov-30 08:00N 49°33' W 124°30'714.7
2018-Nov-30 07:30N 49°38' W 124°38'814.9
2018-Nov-30 07:00N 49°43' W 124°47'714.9
2018-Nov-30 06:30N 49°48' W 124°54'714.9
2018-Nov-30 06:00N 49°54' W 125°03'815.5
2018-Nov-30 05:30N 49°59' W 125°11'714.6
2018-Nov-30 05:00N 50°05' W 125°17'815.8
2018-Nov-30 04:30N 50°12' W 125°22'816.5
2018-Nov-30 04:00N 50°20' W 125°26'915.8
2018-Nov-30 03:28N 50°22' W 125°39'2016.5
2018-Nov-30 02:16N 50°28' W 126°09'516.1
2018-Nov-30 01:59N 50°29' W 126°16'816.4
2018-Nov-30 01:30N 50°30' W 126°28'816.0
2018-Nov-30 01:00N 50°32' W 126°41'714.9
2018-Nov-30 00:30N 50°36' W 126°50'815.2
2018-Nov-30 00:00N 50°43' W 126°56'816.5
2018-Nov-29 23:30N 50°48' W 127°06'816.4
2018-Nov-29 23:00N 50°52' W 127°17'816.3
2018-Nov-29 22:30N 50°57' W 127°28'815.3
2018-Nov-29 22:00N 51°02' W 127°37'816.0
2018-Nov-29 21:30N 51°07' W 127°46'816.0
2018-Nov-29 21:00N 51°14' W 127°53'816.1
2018-Nov-29 20:30N 51°22' W 127°57'815.2
2018-Nov-29 20:00N 51°26' W 128°07'815.2
2018-Nov-29 19:30N 51°32' W 128°14'816.0
2018-Nov-29 19:00N 51°39' W 128°21'816.1
2018-Nov-29 18:30N 51°46' W 128°28'815.6
2018-Nov-29 18:00N 51°53' W 128°34'815.7
2018-Nov-29 17:30N 52°00' W 128°38'815.6
2018-Nov-29 17:00N 52°08' W 128°42'815.2
2018-Nov-29 16:30N 52°15' W 128°47'815.1
2018-Nov-29 16:00N 52°22' W 128°49'  
Track history (hours):
 
Tides and Currents Weather Stations Pressure Air Temp Water Temp Dewpoint Dewpoint Depression Visibility Wind Speed Wind Dir Waves Ship Positions

Kennicott

Owner: ALASKA, STATE OF, Anchorage, AK. More information available from US FCC via Universal Licensing System and Coast Guard Vessel Documentation Center.

Last reported at 2018-Dec-09 13:22 UTC. Time now 2018-Dec-12 14:55 UTC.
Position N 54°54' W 131°02'.

Type: Passenger vessel. MMSI: 368250000.

Date/timePositionNaut miles runAvg speedWind from/ knotsBaromVisibWave heightAir tempDewpointWater temp
2018-Dec-09 13:22N 54°54' W 131°02'616.2
2018-Dec-09 13:00N 54°48' W 130°58'816.0
2018-Dec-09 12:30N 54°42' W 130°49'815.9
2018-Dec-09 12:00N 54°36' W 130°40'815.6
2018-Dec-09 11:30N 54°28' W 130°38'816.9
2018-Dec-09 11:00N 54°20' W 130°35'917.1
2018-Dec-09 10:31N 54°13' W 130°29'713.7
2018-Dec-09 10:00N 54°07' W 130°23'817.0
2018-Dec-09 09:30N 54°00' W 130°13'816.3
2018-Dec-09 09:00N 53°53' W 130°06'917.4
2018-Dec-09 08:30N 53°47' W 129°56'8315.0
2018-Dec-09 02:58N 52°41' W 128°33'714.9
2018-Dec-09 02:30N 52°34' W 128°29'715.3
2018-Dec-09 02:00N 52°27' W 128°28'815.4
2018-Dec-09 01:30N 52°19' W 128°32'713.1
2018-Dec-09 01:00N 52°15' W 128°24'917.3
2018-Dec-09 00:30N 52°13' W 128°10'4 8.8
2018-Dec-09 00:00N 52°09' W 128°08'611.4
2018-Dec-08 23:30N 52°04' W 128°03'612.4
2018-Dec-08 23:00N 52°00' W 127°56'815.1
2018-Dec-08 22:30N 51°53' W 127°56'815.7
2018-Dec-08 22:00N 51°45' W 127°55'815.9
2018-Dec-08 21:31N 51°37' W 127°53'816.4
2018-Dec-08 21:00N 51°29' W 127°51'816.2
2018-Dec-08 20:29N 51°20' W 127°52'816.0
2018-Dec-08 20:00N 51°13' W 127°52'815.7
2018-Dec-08 19:30N 51°06' W 127°45'816.1
2018-Dec-08 19:00N 51°00' W 127°36'815.8
2018-Dec-08 18:30N 50°56' W 127°26'816.9
2018-Dec-08 18:00N 50°51' W 127°15'917.2
2018-Dec-08 17:30N 50°46' W 127°03'917.2
2018-Dec-08 17:00N 50°41' W 126°53'917.7
2018-Dec-08 16:30N 50°35' W 126°42'916.5
2018-Dec-08 15:57N 50°30' W 126°30'1318.4
2018-Dec-08 15:14N 50°28' W 126°09'1717.7
2018-Dec-08 14:17N 50°22' W 125°45'1217.0
2018-Dec-08 13:36N 50°20' W 125°27'114.0
2018-Dec-08 13:30N 50°19' W 125°25'816.4
2018-Dec-08 13:01N 50°12' W 125°22'611.7
2018-Dec-08 12:30N 50°06' W 125°18'510.0
2018-Dec-08 12:00N 50°02' W 125°13'611.9
2018-Dec-08 11:30N 49°57' W 125°08'714.1
2018-Dec-08 11:00N 49°52' W 125°00'714.4
2018-Dec-08 10:30N 49°47' W 124°53'714.4
2018-Dec-08 10:00N 49°42' W 124°45'714.3
2018-Dec-08 09:30N 49°37' W 124°37'714.4
2018-Dec-08 09:00N 49°32' W 124°29'713.8
2018-Dec-08 08:30N 49°27' W 124°21'714.3
2018-Dec-08 08:01N 49°24' W 124°11'714.4
2018-Dec-08 07:30N 49°23' W 124°00'714.6
2018-Dec-08 07:01N 49°21' W 123°50'714.5
2018-Dec-08 06:30N 49°16' W 123°41'714.7
2018-Dec-08 06:00N 49°12' W 123°33'714.5
2018-Dec-08 05:31N 49°06' W 123°25'714.7
2018-Dec-08 05:00N 49°02' W 123°16'714.6
2018-Dec-08 04:31N 48°57' W 123°08'714.5
2018-Dec-08 04:01N 48°52' W 122°60'714.5
2018-Dec-08 03:30N 48°47' W 122°51'714.1
2018-Dec-08 03:00N 48°42' W 122°44'713.7
2018-Dec-08 02:31N 48°38' W 122°36'611.7
2018-Dec-08 01:59N 48°44' W 122°31'0 0.6
2018-Dec-08 01:30N 48°43' W 122°31'0 0.0
2018-Dec-08 01:00N 48°43' W 122°31'0 0.0
2018-Dec-08 00:21N 48°43' W 122°31'0 0.0
2018-Dec-08 00:00N 48°43' W 122°31'0 0.0
2018-Dec-07 23:30N 48°43' W 122°31'0 0.0
2018-Dec-07 23:00N 48°43' W 122°31'0 0.0
2018-Dec-07 22:30N 48°43' W 122°31'0 0.0
2018-Dec-07 21:57N 48°43' W 122°31'0 0.0
2018-Dec-07 21:30N 48°43' W 122°31'0 0.0
2018-Dec-07 21:00N 48°43' W 122°31'0 0.0
2018-Dec-07 20:27N 48°43' W 122°31'0 0.0
2018-Dec-07 19:57N 48°43' W 122°31'0 0.0
2018-Dec-07 19:30N 48°43' W 122°31'0 0.0
2018-Dec-07 18:54N 48°43' W 122°31'0 0.0
2018-Dec-07 18:30N 48°43' W 122°31'0 0.0
2018-Dec-07 18:00N 48°43' W 122°31'0 0.0
2018-Dec-07 17:27N 48°43' W 122°31'0 0.0
2018-Dec-07 16:57N 48°43' W 122°31'0 0.0
2018-Dec-07 16:30N 48°43' W 122°31'0 0.0
2018-Dec-07 15:57N 48°43' W 122°31'0 0.6
2018-Dec-07 15:30N 48°44' W 122°31'611.3
2018-Dec-07 15:00N 48°38' W 122°34'713.0
2018-Dec-07 14:29N 48°41' W 122°44'714.8
2018-Dec-07 14:00N 48°46' W 122°51'816.1
2018-Dec-07 13:30N 48°50' W 123°01'815.7
2018-Dec-07 13:00N 48°55' W 123°10'816.1
2018-Dec-07 12:30N 49°01' W 123°19'815.8
2018-Dec-07 12:00N 49°06' W 123°28'815.6
2018-Dec-07 11:30N 49°12' W 123°36'815.6
2018-Dec-07 11:00N 49°18' W 123°45'815.7
2018-Dec-07 10:30N 49°21' W 123°55'815.9
2018-Dec-07 10:00N 49°24' W 124°07'815.7
2018-Dec-07 09:30N 49°26' W 124°18'815.6
2018-Dec-07 09:00N 49°31' W 124°28'816.3
2018-Dec-07 08:30N 49°37' W 124°36'816.5
2018-Dec-07 08:00N 49°42' W 124°45'816.2
2018-Dec-07 07:30N 49°48' W 124°54'816.3
2018-Dec-07 07:00N 49°54' W 125°03'815.7
2018-Dec-07 06:30N 49°59' W 125°12'611.4
2018-Dec-07 06:00N 50°05' W 125°16'612.2
2018-Dec-07 05:30N 50°10' W 125°22'813.8
2018-Dec-07 04:58N 50°17' W 125°24'712.9
2018-Dec-07 04:27N 50°21' W 125°32'613.7
2018-Dec-07 04:00N 50°22' W 125°41'2013.2
2018-Dec-07 02:29N 50°28' W 126°11'814.5
2018-Dec-07 01:58N 50°30' W 126°23'714.4
2018-Dec-07 01:29N 50°30' W 126°34'612.3
2018-Dec-07 01:00N 50°34' W 126°41'714.3
2018-Dec-07 00:29N 50°39' W 126°50'715.7
2018-Dec-07 00:00N 50°44' W 126°59'815.6
2018-Dec-06 23:31N 50°49' W 127°09'815.5
2018-Dec-06 23:01N 50°53' W 127°19'714.8
2018-Dec-06 22:31N 50°57' W 127°28'713.5
2018-Dec-06 22:00N 51°02' W 127°36'714.4
2018-Dec-06 21:31N 51°06' W 127°45'714.0
2018-Dec-06 21:01N 51°12' W 127°51'815.0
2018-Dec-06 20:30N 51°20' W 127°52'815.9
2018-Dec-06 20:00N 51°28' W 127°51'14013.3
2018-Dec-06 09:28N 53°26' W 129°55'915.5
2018-Dec-06 08:55N 53°31' W 130°06'715.4
2018-Dec-06 08:29N 53°35' W 130°15'714.6
2018-Dec-06 08:00N 53°39' W 130°25'815.4
2018-Dec-06 07:31N 53°44' W 130°35'714.9
2018-Dec-06 07:00N 53°49' W 130°44'714.8
2018-Dec-06 06:30N 53°54' W 130°54'713.9
2018-Dec-06 06:01N 54°00' W 130°58'815.3
2018-Dec-06 05:30N 54°08' W 131°00'815.4
2018-Dec-06 05:00N 54°15' W 131°02'816.1
2018-Dec-06 04:31N 54°23' W 131°03'815.7
2018-Dec-06 04:00N 54°31' W 131°02'1515.5
2018-Dec-06 03:00N 54°47' W 131°03'  
2018-Dec-02 12:57N 54°51' W 131°00'715.3
2018-Dec-02 12:30N 54°45' W 130°54'816.1
2018-Dec-02 12:00N 54°40' W 130°45'814.9
2018-Dec-02 11:30N 54°33' W 130°39'815.7
2018-Dec-02 11:00N 54°25' W 130°37'816.1
2018-Dec-02 10:30N 54°17' W 130°34'816.6
2018-Dec-02 10:00N 54°10' W 130°27'713.2
2018-Dec-02 09:30N 54°05' W 130°19'815.7
2018-Dec-02 09:00N 53°59' W 130°12'714.7
2018-Dec-02 08:30N 53°53' W 130°05'815.8
2018-Dec-02 08:00N 53°47' W 129°56'8014.1
2018-Dec-02 02:19N 52°43' W 128°34'516.4
2018-Dec-02 02:00N 52°38' W 128°31'815.7
2018-Dec-02 01:29N 52°30' W 128°28'815.7
2018-Dec-02 01:00N 52°23' W 128°31'713.9
2018-Dec-02 00:30N 52°16' W 128°30'816.6
2018-Dec-02 00:00N 52°15' W 128°17'714.5
2018-Dec-01 23:30N 52°11' W 128°06'4 8.4
2018-Dec-01 23:00N 52°07' W 128°08'713.6
2018-Dec-01 22:30N 52°04' W 127°58'714.3
2018-Dec-01 22:00N 51°57' W 127°56'816.0
2018-Dec-01 21:30N 51°49' W 127°55'816.2
2018-Dec-01 21:00N 51°41' W 127°55'815.8
2018-Dec-01 20:30N 51°33' W 127°52'815.6
2018-Dec-01 20:00N 51°26' W 127°52'815.4
2018-Dec-01 19:31N 51°18' W 127°52'815.1
2018-Dec-01 19:00N 51°10' W 127°50'815.4
2018-Dec-01 18:30N 51°05' W 127°42'815.0
2018-Dec-01 18:00N 50°59' W 127°34'815.7
2018-Dec-01 17:30N 50°55' W 127°24'816.4
2018-Dec-01 17:00N 50°50' W 127°13'816.4
2018-Dec-01 16:30N 50°46' W 127°02'815.8
2018-Dec-01 16:00N 50°41' W 126°52'715.0
2018-Dec-01 15:30N 50°36' W 126°43'713.6
2018-Dec-01 14:59N 50°31' W 126°36'816.1
2018-Dec-01 14:29N 50°30' W 126°23'916.4
2018-Dec-01 13:57N 50°29' W 126°10'1616.1
2018-Dec-01 12:58N 50°23' W 125°46'916.9
2018-Dec-01 12:25N 50°21' W 125°32'615.2
2018-Dec-01 12:00N 50°17' W 125°25'917.6
2018-Dec-01 11:31N 50°09' W 125°21'814.9
2018-Dec-01 11:00N 50°03' W 125°14'816.3
2018-Dec-01 10:30N 49°56' W 125°07'816.1
2018-Dec-01 10:00N 49°51' W 124°58'816.4
2018-Dec-01 09:31N 49°45' W 124°49'816.2
2018-Dec-01 09:00N 49°39' W 124°40'815.5
2018-Dec-01 08:30N 49°34' W 124°32'816.1
2018-Dec-01 08:00N 49°28' W 124°23'816.3
2018-Dec-01 07:31N 49°24' W 124°12'815.4
2018-Dec-01 07:00N 49°23' W 124°00'816.1
2018-Dec-01 06:30N 49°21' W 123°48'816.1
2018-Dec-01 06:00N 49°16' W 123°39'815.9
2018-Dec-01 05:31N 49°10' W 123°30'816.4
2018-Dec-01 05:00N 49°05' W 123°21'816.2
2018-Dec-01 04:30N 48°59' W 123°12'816.5
2018-Dec-01 04:00N 48°53' W 123°03'816.2
2018-Dec-01 03:30N 48°48' W 122°53'815.6
2018-Dec-01 03:00N 48°43' W 122°44'715.1
2018-Dec-01 02:31N 48°38' W 122°36'610.6
2018-Dec-01 01:56N 48°43' W 122°31'0 0.0
2018-Dec-01 01:29N 48°43' W 122°31'0 0.0
2018-Dec-01 00:38N 48°43' W 122°31'0 0.0
2018-Dec-01 00:29N 48°43' W 122°31'0 0.0
2018-Nov-30 23:59N 48°43' W 122°31'0 0.0
2018-Nov-30 23:20N 48°43' W 122°31'0 0.0
2018-Nov-30 22:59N 48°43' W 122°31'0 0.0
2018-Nov-30 22:26N 48°43' W 122°31'0 0.0
2018-Nov-30 21:41N 48°43' W 122°31'0 0.0
2018-Nov-30 21:29N 48°43' W 122°31'0 0.0
2018-Nov-30 20:59N 48°43' W 122°31'0 0.0
2018-Nov-30 20:08N 48°43' W 122°31'0 0.0
2018-Nov-30 18:50N 48°43' W 122°31'0 0.0
2018-Nov-30 18:20N 48°43' W 122°31'0 0.0
2018-Nov-30 17:56N 48°43' W 122°31'0 0.0
2018-Nov-30 16:29N 48°43' W 122°31'0 0.0
2018-Nov-30 15:59N 48°43' W 122°31'0 0.3
2018-Nov-30 15:30N 48°44' W 122°31'510.1
2018-Nov-30 15:00N 48°39' W 122°34'510.6
2018-Nov-30 14:30N 48°40' W 122°42'612.8
2018-Nov-30 14:00N 48°45' W 122°47'613.0
2018-Nov-30 13:30N 48°48' W 122°56'714.4
2018-Nov-30 13:00N 48°52' W 123°05'714.9
2018-Nov-30 12:30N 48°57' W 123°13'713.5
2018-Nov-30 12:00N 49°02' W 123°21'713.5
2018-Nov-30 11:30N 49°06' W 123°28'713.6
2018-Nov-30 11:00N 49°11' W 123°35'713.4
2018-Nov-30 10:30N 49°16' W 123°42'714.3
2018-Nov-30 10:00N 49°21' W 123°50'714.6
2018-Nov-30 09:30N 49°23' W 124°01'714.7
2018-Nov-30 09:00N 49°24' W 124°12'714.5
2018-Nov-30 08:29N 49°28' W 124°22'714.5
2018-Nov-30 08:00N 49°33' W 124°30'714.7
2018-Nov-30 07:30N 49°38' W 124°38'814.9
2018-Nov-30 07:00N 49°43' W 124°47'714.9
2018-Nov-30 06:30N 49°48' W 124°54'714.9
2018-Nov-30 06:00N 49°54' W 125°03'815.5
2018-Nov-30 05:30N 49°59' W 125°11'714.6
2018-Nov-30 05:00N 50°05' W 125°17'815.8
2018-Nov-30 04:30N 50°12' W 125°22'816.5
2018-Nov-30 04:00N 50°20' W 125°26'915.8
2018-Nov-30 03:28N 50°22' W 125°39'2016.5
2018-Nov-30 02:16N 50°28' W 126°09'516.1
2018-Nov-30 01:59N 50°29' W 126°16'816.4
2018-Nov-30 01:30N 50°30' W 126°28'816.0
2018-Nov-30 01:00N 50°32' W 126°41'714.9
2018-Nov-30 00:30N 50°36' W 126°50'815.2
2018-Nov-30 00:00N 50°43' W 126°56'816.5
2018-Nov-29 23:30N 50°48' W 127°06'816.4
2018-Nov-29 23:00N 50°52' W 127°17'816.3
2018-Nov-29 22:30N 50°57' W 127°28'815.3
2018-Nov-29 22:00N 51°02' W 127°37'816.0
2018-Nov-29 21:30N 51°07' W 127°46'816.0
2018-Nov-29 21:00N 51°14' W 127°53'816.1
2018-Nov-29 20:30N 51°22' W 127°57'815.2
2018-Nov-29 20:00N 51°26' W 128°07'815.2
2018-Nov-29 19:30N 51°32' W 128°14'816.0
2018-Nov-29 19:00N 51°39' W 128°21'816.1
2018-Nov-29 18:30N 51°46' W 128°28'815.6
2018-Nov-29 18:00N 51°53' W 128°34'815.7
2018-Nov-29 17:30N 52°00' W 128°38'815.6
2018-Nov-29 17:00N 52°08' W 128°42'815.2
2018-Nov-29 16:30N 52°15' W 128°47'815.1
2018-Nov-29 16:00N 52°22' W 128°49'  

Dump ship's entire track history